KIAB/IAB METAR and TAF weather

Enter ICAO airport designator
Station Type Date Time Source
KIAB METAR 2022/12/02 22:55 UTC NOAA

KIAB 022255Z AUTO 22012KT 10SM CLR 16/09 A2970 RMK AO2 SLP060 T01600087 $


Station Type Date Time Source
KIAB Decoded METAR 2022/12/02 22:55 UTC NOAA

McConnell Air Force Base, KS, United States (KIAB) 37-37N 097-16W
Dec 02, 2022 - 05:55 PM EST / 2022.12.02 2255 UTC
Wind: from the SW (220 degrees) at 14 MPH (12 KT):0
Visibility: 10 mile(s):0
Sky conditions: clear
Temperature: 60.8 F (16.0 C)
Dew Point: 47.7 F (8.7 C)
Relative Humidity: 61%
Pressure (altimeter): 29.7 in. Hg (1005 hPa)
ob: KIAB 022255Z AUTO 22012KT 10SM CLR 16/09 A2970 RMK AO2 SLP060 T01600087
cycle: 23

Station Type Date Time Source
KIAB TAF 2022/12/02 23:24 UTC NOAA

TAF
AMD KIAB 022330Z 0223/0324 22018G28KT 9999 BKN250 QNH2960INS
BECMG 0301/0302 34025G35KT 8000 DU SCT250 520005 QNH3005INS
TEMPO 0303/0307 35035G45KT 3200 BLDU
BECMG 0308/0309 35015G25KT 9999 NSW BKN200 QNH3038INS
BECMG 0316/0317 36010G17KT 9999 BKN200 QNH3043INS
BECMG 0320/0321 13006KT 9999 FEW120 BKN200 QNH3039INS TX16/0223Z TNM05/0312Z LAST NO
AMDS AFT 0223 NEXT 0310

Example: see airport list